SWA3983 KRDU-KBNA
Flight info
| Callsign | SWA3983 |
|---|---|
| Flight time | 1h 16m |
| Altitude | 32000 |
| Route | SHPRD4 SHPRD EDDDY SWFFT3 |
| Aircraft | B738/M-SDE2E3FGHIRWXY/LB1 |
Departure
| Time | 2026-05-06 23:52 |
|---|---|
| Airport | Raleigh-Durham International Airport (KRDU) |
Arrival
| Time | 2026-05-07 01:09 |
|---|---|
| Airport | Nashville International Airport (KBNA) |
| Time | Latitude | Longitude | Altitude | Speed | Heading |
|---|---|---|---|---|---|
| 2026-05-06 23:32 | 35.87439 | -78.78874 | 435 ft | 0 kts | 315° |
| 2026-05-06 23:41 | 35.87434 | -78.78867 | 434 ft | 3 kts | 314° |
| 2026-05-06 23:41 | 35.87421 | -78.78849 | 422 ft | 3 kts | 310° |
| 2026-05-06 23:42 | 35.87408 | -78.78830 | 420 ft | 3 kts | 309° |
| 2026-05-06 23:42 | 35.87395 | -78.78811 | 420 ft | 3 kts | 319° |
| 2026-05-06 23:42 | 35.87381 | -78.78799 | 423 ft | 3 kts | 6° |
| 2026-05-06 23:42 | 35.87376 | -78.78800 | 426 ft | 0 kts | 45° |
| 2026-05-06 23:45 | 35.87400 | -78.78770 | 428 ft | 10 kts | 45° |
| 2026-05-06 23:45 | 35.87474 | -78.78679 | 433 ft | 17 kts | 45° |
| 2026-05-06 23:46 | 35.87524 | -78.78617 | 430 ft | 10 kts | 45° |
| 2026-05-06 23:46 | 35.87572 | -78.78557 | 426 ft | 10 kts | 45° |
| 2026-05-06 23:46 | 35.87626 | -78.78491 | 424 ft | 14 kts | 44° |
| 2026-05-06 23:46 | 35.87703 | -78.78396 | 428 ft | 15 kts | 45° |
| 2026-05-06 23:47 | 35.87775 | -78.78307 | 428 ft | 14 kts | 45° |
| 2026-05-06 23:47 | 35.87840 | -78.78227 | 420 ft | 13 kts | 45° |
| 2026-05-06 23:47 | 35.87899 | -78.78154 | 422 ft | 4 kts | 45° |
| 2026-05-06 23:47 | 35.87917 | -78.78131 | 427 ft | 4 kts | 45° |
| 2026-05-06 23:48 | 35.87940 | -78.78102 | 418 ft | 4 kts | 45° |
| 2026-05-06 23:48 | 35.87964 | -78.78067 | 421 ft | 6 kts | 63° |
| 2026-05-06 23:48 | 35.87967 | -78.78049 | 429 ft | 0 kts | 87° |
| 2026-05-06 23:49 | 35.87967 | -78.78046 | 429 ft | 2 kts | 88° |
| 2026-05-06 23:49 | 35.87962 | -78.78003 | 430 ft | 3 kts | 138° |
| 2026-05-06 23:49 | 35.87908 | -78.77971 | 419 ft | 11 kts | 183° |
| 2026-05-06 23:50 | 35.87894 | -78.77980 | 425 ft | 0 kts | 217° |
| 2026-05-06 23:51 | 35.87797 | -78.78094 | 426 ft | 51 kts | 225° |
| 2026-05-06 23:52 | 35.87389 | -78.78595 | 428 ft | 112 kts | 224° |
| 2026-05-06 23:52 | 35.86725 | -78.79407 | 532 ft | 151 kts | 225° |
| 2026-05-06 23:52 | 35.85961 | -78.80385 | 928 ft | 173 kts | 227° |
| 2026-05-06 23:52 | 35.85081 | -78.81523 | 1468 ft | 183 kts | 226° |
| 2026-05-06 23:53 | 35.84203 | -78.82522 | 2564 ft | 167 kts | 225° |
| 2026-05-06 23:53 | 35.83306 | -78.83536 | 3102 ft | 188 kts | 225° |
| 2026-05-06 23:53 | 35.82383 | -78.84805 | 3301 ft | 211 kts | 245° |
| 2026-05-06 23:53 | 35.82226 | -78.86629 | 3811 ft | 221 kts | 272° |
| 2026-05-06 23:54 | 35.82352 | -78.88530 | 4433 ft | 225 kts | 272° |
| 2026-05-06 23:54 | 35.82466 | -78.90540 | 4876 ft | 242 kts | 272° |
| 2026-05-06 23:54 | 35.82567 | -78.92625 | 5656 ft | 245 kts | 272° |
| 2026-05-06 23:54 | 35.82654 | -78.94694 | 6494 ft | 246 kts | 271° |
| 2026-05-06 23:55 | 35.82732 | -78.96834 | 7315 ft | 247 kts | 271° |
| 2026-05-06 23:55 | 35.82801 | -78.98958 | 8106 ft | 249 kts | 271° |
| 2026-05-06 23:55 | 35.82864 | -79.01104 | 8874 ft | 252 kts | 270° |
| 2026-05-06 23:55 | 35.82923 | -79.03242 | 9670 ft | 254 kts | 270° |
| 2026-05-06 23:56 | 35.82979 | -79.05436 | 10305 ft | 261 kts | 270° |
| 2026-05-06 23:56 | 35.83036 | -79.07764 | 10497 ft | 284 kts | 270° |
| 2026-05-06 23:56 | 35.83097 | -79.10301 | 10663 ft | 307 kts | 270° |
| 2026-05-06 23:56 | 35.83160 | -79.13018 | 10815 ft | 327 kts | 270° |
| 2026-05-06 23:57 | 35.83226 | -79.15905 | 10948 ft | 346 kts | 270° |
| 2026-05-06 23:57 | 35.83296 | -79.18927 | 11267 ft | 356 kts | 271° |
| 2026-05-06 23:57 | 35.83365 | -79.22000 | 11764 ft | 361 kts | 271° |
| 2026-05-06 23:57 | 35.83434 | -79.25105 | 12348 ft | 363 kts | 271° |
| 2026-05-06 23:58 | 35.83502 | -79.28235 | 12917 ft | 367 kts | 271° |
| 2026-05-06 23:58 | 35.83505 | -79.31392 | 13491 ft | 370 kts | 267° |
| 2026-05-06 23:58 | 35.83300 | -79.34565 | 14051 ft | 373 kts | 264° |
| 2026-05-06 23:58 | 35.83025 | -79.37751 | 14633 ft | 375 kts | 264° |
| 2026-05-06 23:59 | 35.82745 | -79.40950 | 15244 ft | 376 kts | 264° |
| 2026-05-06 23:59 | 35.82479 | -79.44163 | 15882 ft | 376 kts | 265° |
| 2026-05-06 23:59 | 35.82229 | -79.47357 | 16554 ft | 375 kts | 265° |
| 2026-05-06 23:59 | 35.81982 | -79.50577 | 17091 ft | 379 kts | 265° |
| 2026-05-07 00:00 | 35.81716 | -79.53821 | 17599 ft | 382 kts | 263° |
| 2026-05-07 00:00 | 35.81244 | -79.57052 | 18142 ft | 385 kts | 260° |
| 2026-05-07 00:00 | 35.80688 | -79.60286 | 18595 ft | 388 kts | 259° |
| 2026-05-07 00:00 | 35.80305 | -79.62445 | 18884 ft | 389 kts | 259° |
| 2026-05-07 00:01 | 35.79534 | -79.66784 | 19371 ft | 394 kts | 259° |
| 2026-05-07 00:01 | 35.78951 | -79.70099 | 19775 ft | 397 kts | 260° |
| 2026-05-07 00:01 | 35.78369 | -79.73437 | 20242 ft | 398 kts | 260° |
| 2026-05-07 00:01 | 35.77792 | -79.76774 | 20689 ft | 400 kts | 260° |
| 2026-05-07 00:02 | 35.77213 | -79.80130 | 21092 ft | 402 kts | 260° |
| 2026-05-07 00:02 | 35.76636 | -79.83476 | 21784 ft | 396 kts | 261° |
| 2026-05-07 00:02 | 35.76063 | -79.86798 | 22169 ft | 399 kts | 261° |
| 2026-05-07 00:02 | 35.75484 | -79.90161 | 22448 ft | 403 kts | 260° |
| 2026-05-07 00:03 | 35.74900 | -79.93549 | 22784 ft | 406 kts | 260° |
| 2026-05-07 00:03 | 35.74311 | -79.96950 | 22987 ft | 408 kts | 260° |
| 2026-05-07 00:03 | 35.73717 | -80.00375 | 22978 ft | 408 kts | 260° |
| 2026-05-07 00:03 | 35.73123 | -80.03788 | 22977 ft | 407 kts | 260° |
| 2026-05-07 00:04 | 35.72530 | -80.07192 | 22985 ft | 407 kts | 260° |
| 2026-05-07 00:04 | 35.71938 | -80.10589 | 22974 ft | 407 kts | 260° |
| 2026-05-07 00:04 | 35.71349 | -80.13960 | 23005 ft | 409 kts | 260° |
| 2026-05-07 00:04 | 35.70747 | -80.17404 | 23355 ft | 411 kts | 260° |
| 2026-05-07 00:05 | 35.70145 | -80.20834 | 23872 ft | 407 kts | 259° |
| 2026-05-07 00:05 | 35.69548 | -80.24232 | 24218 ft | 407 kts | 259° |
| 2026-05-07 00:05 | 35.68947 | -80.27649 | 24432 ft | 410 kts | 259° |
| 2026-05-07 00:05 | 35.68341 | -80.31090 | 24673 ft | 413 kts | 259° |
| 2026-05-07 00:06 | 35.67731 | -80.34550 | 24940 ft | 414 kts | 259° |
| 2026-05-07 00:06 | 35.67118 | -80.38019 | 25193 ft | 415 kts | 259° |
| 2026-05-07 00:06 | 35.66500 | -80.41508 | 25444 ft | 417 kts | 259° |
| 2026-05-07 00:06 | 35.65916 | -80.44958 | 25680 ft | 418 kts | 262° |
| 2026-05-07 00:07 | 35.65634 | -80.48520 | 25913 ft | 419 kts | 268° |
| 2026-05-07 00:07 | 35.65712 | -80.52099 | 26139 ft | 421 kts | 275° |
| 2026-05-07 00:07 | 35.66047 | -80.55674 | 26440 ft | 420 kts | 275° |
| 2026-05-07 00:07 | 35.66377 | -80.59234 | 26834 ft | 417 kts | 275° |
| 2026-05-07 00:08 | 35.66696 | -80.62764 | 27187 ft | 415 kts | 275° |
| 2026-05-07 00:08 | 35.67009 | -80.66293 | 27500 ft | 415 kts | 275° |
| 2026-05-07 00:08 | 35.67317 | -80.69822 | 27824 ft | 414 kts | 275° |
| 2026-05-07 00:08 | 35.67621 | -80.73347 | 28169 ft | 414 kts | 275° |
| 2026-05-07 00:09 | 35.67922 | -80.76863 | 28526 ft | 413 kts | 275° |
| 2026-05-07 00:09 | 35.68221 | -80.80367 | 28890 ft | 411 kts | 275° |
| 2026-05-07 00:09 | 35.68517 | -80.83864 | 29265 ft | 411 kts | 275° |
| 2026-05-07 00:09 | 35.68812 | -80.87353 | 29614 ft | 410 kts | 275° |
| 2026-05-07 00:10 | 35.69106 | -80.90843 | 29989 ft | 410 kts | 275° |
| 2026-05-07 00:10 | 35.69397 | -80.94302 | 30531 ft | 402 kts | 275° |
| 2026-05-07 00:10 | 35.69681 | -80.97692 | 31111 ft | 394 kts | 274° |
| 2026-05-07 00:10 | 35.69959 | -81.01015 | 31672 ft | 388 kts | 274° |
| 2026-05-07 00:11 | 35.70233 | -81.04309 | 31942 ft | 388 kts | 274° |
| 2026-05-07 00:11 | 35.70507 | -81.07621 | 31966 ft | 389 kts | 274° |
| 2026-05-07 00:11 | 35.71052 | -81.14237 | 31962 ft | 387 kts | 274° |
| 2026-05-07 00:12 | 35.71590 | -81.20810 | 31980 ft | 385 kts | 274° |
| 2026-05-07 00:12 | 35.72120 | -81.27326 | 31990 ft | 385 kts | 274° |
| 2026-05-07 00:13 | 35.72649 | -81.33875 | 31997 ft | 384 kts | 274° |
| 2026-05-07 00:13 | 35.73174 | -81.40411 | 31990 ft | 383 kts | 274° |
| 2026-05-07 00:14 | 35.73606 | -81.45838 | 31986 ft | 383 kts | 274° |
| 2026-05-07 00:14 | 35.74124 | -81.52369 | 31995 ft | 383 kts | 274° |
| 2026-05-07 00:15 | 35.74637 | -81.58899 | 32031 ft | 383 kts | 274° |
| 2026-05-07 00:15 | 35.75149 | -81.65443 | 32042 ft | 384 kts | 274° |
| 2026-05-07 00:16 | 35.75655 | -81.71976 | 32019 ft | 383 kts | 273° |
| 2026-05-07 00:16 | 35.76156 | -81.78472 | 32006 ft | 383 kts | 273° |
| 2026-05-07 00:17 | 35.76656 | -81.85014 | 31998 ft | 383 kts | 273° |
| 2026-05-07 00:17 | 35.77151 | -81.91532 | 31975 ft | 383 kts | 273° |
| 2026-05-07 00:18 | 35.77643 | -81.98061 | 31965 ft | 383 kts | 273° |
| 2026-05-07 00:18 | 35.78132 | -82.04591 | 31957 ft | 383 kts | 273° |
| 2026-05-07 00:19 | 35.78617 | -82.11126 | 31949 ft | 383 kts | 273° |
| 2026-05-07 00:19 | 35.79101 | -82.17661 | 31970 ft | 382 kts | 273° |
| 2026-05-07 00:20 | 35.79577 | -82.24155 | 31950 ft | 383 kts | 273° |
| 2026-05-07 00:20 | 35.80052 | -82.30697 | 31966 ft | 383 kts | 273° |
| 2026-05-07 00:21 | 35.80521 | -82.37225 | 31952 ft | 384 kts | 273° |
| 2026-05-07 00:21 | 35.80983 | -82.43727 | 31961 ft | 384 kts | 272° |
| 2026-05-07 00:22 | 35.81451 | -82.50274 | 31953 ft | 383 kts | 272° |
| 2026-05-07 00:22 | 35.81912 | -82.56808 | 31962 ft | 382 kts | 272° |
| 2026-05-07 00:23 | 35.82366 | -82.63314 | 31957 ft | 381 kts | 272° |
| 2026-05-07 00:23 | 35.82814 | -82.69779 | 31950 ft | 381 kts | 272° |
| 2026-05-07 00:24 | 35.83260 | -82.76275 | 31971 ft | 380 kts | 272° |
| 2026-05-07 00:24 | 35.83704 | -82.82773 | 31960 ft | 380 kts | 272° |
| 2026-05-07 00:25 | 35.84143 | -82.89266 | 31957 ft | 379 kts | 271° |
| 2026-05-07 00:25 | 35.84577 | -82.95741 | 31954 ft | 379 kts | 271° |
| 2026-05-07 00:26 | 35.85010 | -83.02237 | 31964 ft | 380 kts | 272° |
| 2026-05-07 00:26 | 35.85441 | -83.08746 | 31959 ft | 381 kts | 272° |
| 2026-05-07 00:27 | 35.85867 | -83.15250 | 31967 ft | 381 kts | 271° |
| 2026-05-07 00:27 | 35.86286 | -83.21723 | 31973 ft | 381 kts | 271° |
| 2026-05-07 00:28 | 35.86707 | -83.28231 | 31960 ft | 380 kts | 271° |
| 2026-05-07 00:28 | 35.87123 | -83.34718 | 31954 ft | 380 kts | 271° |
| 2026-05-07 00:29 | 35.87534 | -83.41220 | 31958 ft | 380 kts | 271° |
| 2026-05-07 00:30 | 35.88347 | -83.54220 | 31960 ft | 380 kts | 271° |
| 2026-05-07 00:30 | 35.88745 | -83.60674 | 31961 ft | 379 kts | 271° |
| 2026-05-07 00:31 | 35.89142 | -83.67158 | 31961 ft | 379 kts | 271° |
| 2026-05-07 00:31 | 35.89534 | -83.73630 | 31971 ft | 378 kts | 271° |
| 2026-05-07 00:32 | 35.89923 | -83.80096 | 31975 ft | 378 kts | 271° |
| 2026-05-07 00:32 | 35.90309 | -83.86572 | 31969 ft | 379 kts | 271° |
| 2026-05-07 00:33 | 35.89984 | -83.92988 | 31986 ft | 374 kts | 258° |
| 2026-05-07 00:33 | 35.88912 | -83.99264 | 31970 ft | 374 kts | 258° |
| 2026-05-07 00:34 | 35.87867 | -84.05497 | 31964 ft | 373 kts | 258° |
| 2026-05-07 00:34 | 35.86829 | -84.11763 | 31958 ft | 373 kts | 258° |
| 2026-05-07 00:35 | 35.85793 | -84.18024 | 31985 ft | 373 kts | 258° |
| 2026-05-07 00:35 | 35.84753 | -84.24295 | 31977 ft | 373 kts | 258° |
| 2026-05-07 00:36 | 35.83712 | -84.30558 | 31972 ft | 373 kts | 258° |
| 2026-05-07 00:36 | 35.82669 | -84.36807 | 31957 ft | 372 kts | 258° |
| 2026-05-07 00:37 | 35.81626 | -84.43036 | 31961 ft | 371 kts | 258° |
| 2026-05-07 00:37 | 35.80581 | -84.49260 | 31961 ft | 371 kts | 258° |
| 2026-05-07 00:38 | 35.79533 | -84.55480 | 31957 ft | 371 kts | 257° |
| 2026-05-07 00:38 | 35.78482 | -84.61693 | 31959 ft | 370 kts | 257° |
| 2026-05-07 00:39 | 35.77428 | -84.67905 | 31979 ft | 370 kts | 257° |
| 2026-05-07 00:39 | 35.76373 | -84.74105 | 31335 ft | 372 kts | 257° |
| 2026-05-07 00:40 | 35.75845 | -84.77202 | 30712 ft | 367 kts | 257° |
| 2026-05-07 00:40 | 35.75316 | -84.80295 | 29882 ft | 370 kts | 257° |
| 2026-05-07 00:40 | 35.74784 | -84.83402 | 28866 ft | 373 kts | 258° |
| 2026-05-07 00:40 | 35.74246 | -84.86540 | 27878 ft | 375 kts | 258° |
| 2026-05-07 00:41 | 35.73705 | -84.89690 | 26899 ft | 378 kts | 258° |
| 2026-05-07 00:41 | 35.73163 | -84.92838 | 26213 ft | 374 kts | 258° |
| 2026-05-07 00:41 | 35.72580 | -84.95945 | 25511 ft | 371 kts | 258° |
| 2026-05-07 00:41 | 35.72045 | -84.99050 | 24797 ft | 370 kts | 258° |
| 2026-05-07 00:42 | 35.71531 | -85.02143 | 24091 ft | 368 kts | 258° |
| 2026-05-07 00:42 | 35.71020 | -85.05183 | 23413 ft | 368 kts | 258° |
| 2026-05-07 00:42 | 35.70495 | -85.08265 | 22626 ft | 366 kts | 258° |
| 2026-05-07 00:42 | 35.69968 | -85.11319 | 21891 ft | 363 kts | 258° |
| 2026-05-07 00:43 | 35.69445 | -85.14332 | 21229 ft | 358 kts | 258° |
| 2026-05-07 00:43 | 35.68925 | -85.17314 | 20538 ft | 354 kts | 258° |
| 2026-05-07 00:43 | 35.68411 | -85.20260 | 19969 ft | 349 kts | 258° |
| 2026-05-07 00:43 | 35.67895 | -85.23119 | 19742 ft | 336 kts | 258° |
| 2026-05-07 00:44 | 35.67385 | -85.25892 | 19572 ft | 334 kts | 258° |
| 2026-05-07 00:44 | 35.66864 | -85.28723 | 19384 ft | 342 kts | 258° |
| 2026-05-07 00:44 | 35.66334 | -85.31597 | 19181 ft | 344 kts | 258° |
| 2026-05-07 00:44 | 35.65813 | -85.34425 | 18955 ft | 344 kts | 258° |
| 2026-05-07 00:45 | 35.65283 | -85.37299 | 18743 ft | 344 kts | 258° |
| 2026-05-07 00:45 | 35.64755 | -85.40161 | 18567 ft | 343 kts | 258° |
| 2026-05-07 00:45 | 35.64226 | -85.43025 | 18394 ft | 343 kts | 258° |
| 2026-05-07 00:45 | 35.63698 | -85.45884 | 18175 ft | 342 kts | 258° |
| 2026-05-07 00:46 | 35.63173 | -85.48724 | 17952 ft | 340 kts | 258° |
| 2026-05-07 00:46 | 35.62649 | -85.51550 | 17743 ft | 339 kts | 258° |
| 2026-05-07 00:46 | 35.62124 | -85.54374 | 17527 ft | 338 kts | 258° |
| 2026-05-07 00:46 | 35.61604 | -85.57179 | 17339 ft | 337 kts | 258° |
| 2026-05-07 00:47 | 35.61081 | -85.59991 | 17147 ft | 336 kts | 258° |
| 2026-05-07 00:47 | 35.60559 | -85.62797 | 16941 ft | 337 kts | 257° |
| 2026-05-07 00:47 | 35.60036 | -85.65602 | 16760 ft | 337 kts | 257° |
| 2026-05-07 00:47 | 35.59518 | -85.68379 | 16562 ft | 338 kts | 257° |
| 2026-05-07 00:48 | 35.58992 | -85.71192 | 16356 ft | 339 kts | 257° |
| 2026-05-07 00:48 | 35.58464 | -85.74012 | 16163 ft | 339 kts | 257° |
| 2026-05-07 00:48 | 35.57934 | -85.76834 | 15955 ft | 339 kts | 257° |
| 2026-05-07 00:48 | 35.57405 | -85.79657 | 15773 ft | 338 kts | 257° |
| 2026-05-07 00:49 | 35.56879 | -85.82453 | 15556 ft | 325 kts | 257° |
| 2026-05-07 00:49 | 35.56387 | -85.85068 | 15372 ft | 312 kts | 257° |
| 2026-05-07 00:49 | 35.56009 | -85.87607 | 15173 ft | 294 kts | 266° |
| 2026-05-07 00:49 | 35.56258 | -85.90059 | 15035 ft | 288 kts | 278° |
| 2026-05-07 00:50 | 35.56867 | -85.92424 | 14691 ft | 294 kts | 286° |
| 2026-05-07 00:50 | 35.57902 | -85.94629 | 14337 ft | 305 kts | 300° |
| 2026-05-07 00:50 | 35.59321 | -85.96602 | 13967 ft | 310 kts | 304° |
| 2026-05-07 00:50 | 35.60808 | -85.98547 | 13563 ft | 313 kts | 305° |
| 2026-05-07 00:51 | 35.62293 | -86.00487 | 13290 ft | 310 kts | 305° |
| 2026-05-07 00:51 | 35.63754 | -86.02420 | 12895 ft | 308 kts | 305° |
| 2026-05-07 00:51 | 35.65208 | -86.04362 | 12392 ft | 309 kts | 305° |
| 2026-05-07 00:51 | 35.66661 | -86.06310 | 12061 ft | 309 kts | 305° |
| 2026-05-07 00:52 | 35.68129 | -86.08282 | 11654 ft | 314 kts | 306° |
| 2026-05-07 00:52 | 35.69588 | -86.10277 | 11362 ft | 311 kts | 302° |
| 2026-05-07 00:52 | 35.70568 | -86.12566 | 11036 ft | 298 kts | 284° |
| 2026-05-07 00:52 | 35.70979 | -86.14987 | 10757 ft | 289 kts | 271° |
| 2026-05-07 00:53 | 35.70977 | -86.17444 | 10475 ft | 285 kts | 267° |
| 2026-05-07 00:53 | 35.70900 | -86.19865 | 10179 ft | 281 kts | 266° |
| 2026-05-07 00:53 | 35.70814 | -86.22252 | 9948 ft | 274 kts | 266° |
| 2026-05-07 00:53 | 35.70737 | -86.24529 | 9977 ft | 261 kts | 266° |
| 2026-05-07 00:54 | 35.70668 | -86.26690 | 9962 ft | 246 kts | 266° |
| 2026-05-07 00:54 | 35.70606 | -86.28723 | 9870 ft | 230 kts | 266° |
| 2026-05-07 00:54 | 35.70550 | -86.30619 | 9778 ft | 213 kts | 266° |
| 2026-05-07 00:54 | 35.70499 | -86.32378 | 9662 ft | 199 kts | 266° |
| 2026-05-07 00:55 | 35.70451 | -86.34015 | 9540 ft | 185 kts | 266° |
| 2026-05-07 00:55 | 35.70407 | -86.35539 | 9440 ft | 172 kts | 266° |
| 2026-05-07 00:55 | 35.70365 | -86.36958 | 9302 ft | 161 kts | 266° |
| 2026-05-07 00:55 | 35.70326 | -86.38308 | 9007 ft | 159 kts | 266° |
| 2026-05-07 00:56 | 35.70286 | -86.39668 | 8696 ft | 158 kts | 267° |
| 2026-05-07 00:56 | 35.70558 | -86.40967 | 8343 ft | 164 kts | 302° |
| 2026-05-07 00:56 | 35.71317 | -86.42027 | 8046 ft | 164 kts | 306° |
| 2026-05-07 00:56 | 35.72085 | -86.43073 | 7728 ft | 164 kts | 306° |
| 2026-05-07 00:57 | 35.72846 | -86.44115 | 7445 ft | 163 kts | 306° |
| 2026-05-07 00:57 | 35.73593 | -86.45146 | 7185 ft | 161 kts | 306° |
| 2026-05-07 00:57 | 35.74333 | -86.46172 | 6923 ft | 159 kts | 306° |
| 2026-05-07 00:57 | 35.75062 | -86.47192 | 6651 ft | 158 kts | 306° |
| 2026-05-07 00:58 | 35.75773 | -86.48197 | 6375 ft | 157 kts | 306° |
| 2026-05-07 00:58 | 35.76484 | -86.49217 | 6073 ft | 158 kts | 306° |
| 2026-05-07 00:58 | 35.77199 | -86.50256 | 5729 ft | 161 kts | 306° |
| 2026-05-07 00:58 | 35.77923 | -86.51324 | 5393 ft | 164 kts | 306° |
| 2026-05-07 00:59 | 35.79125 | -86.53132 | 4877 ft | 166 kts | 306° |
| 2026-05-07 00:59 | 35.80097 | -86.54615 | 4471 ft | 167 kts | 306° |
| 2026-05-07 00:59 | 35.80569 | -86.55367 | 4264 ft | 167 kts | 306° |
| 2026-05-07 01:00 | 35.81251 | -86.56525 | 4081 ft | 168 kts | 296° |
| 2026-05-07 01:00 | 35.81614 | -86.57908 | 4042 ft | 170 kts | 285° |
| 2026-05-07 01:00 | 35.81914 | -86.59305 | 4021 ft | 167 kts | 285° |
| 2026-05-07 01:00 | 35.82212 | -86.60690 | 4025 ft | 167 kts | 285° |
| 2026-05-07 01:01 | 35.82509 | -86.62060 | 3934 ft | 165 kts | 286° |
| 2026-05-07 01:01 | 35.82798 | -86.63431 | 3651 ft | 167 kts | 286° |
| 2026-05-07 01:01 | 35.83079 | -86.64834 | 3339 ft | 170 kts | 286° |
| 2026-05-07 01:01 | 35.83348 | -86.66254 | 3090 ft | 170 kts | 286° |
| 2026-05-07 01:02 | 35.83620 | -86.67716 | 3096 ft | 179 kts | 287° |
| 2026-05-07 01:02 | 35.84241 | -86.69000 | 3025 ft | 173 kts | 326° |
| 2026-05-07 01:02 | 35.85302 | -86.69559 | 3038 ft | 169 kts | 345° |
| 2026-05-07 01:02 | 35.86434 | -86.69967 | 3048 ft | 170 kts | 346° |
| 2026-05-07 01:03 | 35.87568 | -86.70365 | 3034 ft | 169 kts | 346° |
| 2026-05-07 01:03 | 35.88703 | -86.70759 | 3043 ft | 169 kts | 346° |
| 2026-05-07 01:03 | 35.89838 | -86.71153 | 3045 ft | 169 kts | 346° |
| 2026-05-07 01:03 | 35.90975 | -86.71548 | 3040 ft | 170 kts | 346° |
| 2026-05-07 01:04 | 35.92117 | -86.71943 | 3032 ft | 170 kts | 346° |
| 2026-05-07 01:04 | 35.93257 | -86.72336 | 3028 ft | 168 kts | 346° |
| 2026-05-07 01:04 | 35.94367 | -86.72717 | 3017 ft | 163 kts | 346° |
| 2026-05-07 01:04 | 35.95460 | -86.73089 | 3043 ft | 164 kts | 347° |
| 2026-05-07 01:05 | 35.96588 | -86.73085 | 3052 ft | 163 kts | 11° |
| 2026-05-07 01:05 | 35.97700 | -86.72883 | 3039 ft | 164 kts | 6° |
| 2026-05-07 01:05 | 35.98836 | -86.72751 | 3048 ft | 164 kts | 5° |
| 2026-05-07 01:05 | 35.99967 | -86.72591 | 3012 ft | 158 kts | 9° |
| 2026-05-07 01:06 | 36.01012 | -86.72365 | 2780 ft | 150 kts | 12° |
| 2026-05-07 01:06 | 36.01988 | -86.72073 | 2554 ft | 138 kts | 15° |
| 2026-05-07 01:06 | 36.02884 | -86.71743 | 2316 ft | 133 kts | 18° |
| 2026-05-07 01:06 | 36.03774 | -86.71361 | 2193 ft | 138 kts | 19° |
| 2026-05-07 01:07 | 36.04682 | -86.70996 | 1998 ft | 134 kts | 16° |
| 2026-05-07 01:07 | 36.05545 | -86.70668 | 1725 ft | 125 kts | 17° |
| 2026-05-07 01:07 | 36.06393 | -86.70340 | 1503 ft | 133 kts | 17° |
| 2026-05-07 01:07 | 36.07306 | -86.69977 | 1337 ft | 141 kts | 17° |
| 2026-05-07 01:08 | 36.08229 | -86.69621 | 1122 ft | 134 kts | 16° |
| 2026-05-07 01:08 | 36.09108 | -86.69265 | 891 ft | 133 kts | 15° |
| 2026-05-07 01:08 | 36.09987 | -86.68925 | 704 ft | 131 kts | 15° |
| 2026-05-07 01:08 | 36.10835 | -86.68593 | 589 ft | 121 kts | 15° |
| 2026-05-07 01:09 | 36.11451 | -86.68351 | 584 ft | 62 kts | 17° |
| 2026-05-07 01:09 | 36.11692 | -86.68256 | 577 ft | 35 kts | 17° |
| 2026-05-07 01:09 | 36.11955 | -86.68142 | 569 ft | 27 kts | 34° |
| 2026-05-07 01:09 | 36.12023 | -86.68013 | 572 ft | 0 kts | 63° |
| 2026-05-07 01:10 | 36.12031 | -86.67994 | 569 ft | 5 kts | 63° |
| 2026-05-07 01:10 | 36.12061 | -86.67922 | 568 ft | 14 kts | 62° |
| 2026-05-07 01:11 | 36.12127 | -86.67807 | 576 ft | 19 kts | 31° |
| 2026-05-07 01:11 | 36.12272 | -86.67744 | 570 ft | 18 kts | 18° |
| 2026-05-07 01:11 | 36.12397 | -86.67693 | 571 ft | 21 kts | 18° |
| 2026-05-07 01:11 | 36.12527 | -86.67594 | 577 ft | 24 kts | 44° |
| 2026-05-07 01:12 | 36.12655 | -86.67473 | 570 ft | 24 kts | 27° |
| 2026-05-07 01:12 | 36.12789 | -86.67347 | 571 ft | 27 kts | 43° |
| 2026-05-07 01:12 | 36.12813 | -86.67213 | 569 ft | 12 kts | 97° |
| 2026-05-07 01:12 | 36.12853 | -86.67119 | 569 ft | 11 kts | 58° |
| 2026-05-07 01:13 | 36.12859 | -86.67108 | 573 ft | 0 kts | 58° |